sensor_id;sensor_type;location;lat;lon;timestamp;pressure;altitude;pressure_sealevel;temperature
76007;BMP280;64699;0.000;0.000;2023-02-05T00:01:14;102275.56;;;18.27
76007;BMP280;64699;0.000;0.000;2023-02-05T00:03:39;102278.53;;;18.24
76007;BMP280;64699;0.000;0.000;2023-02-05T00:06:05;102270.78;;;18.22
76007;BMP280;64699;0.000;0.000;2023-02-05T00:08:30;102280.25;;;18.21
76007;BMP280;64699;0.000;0.000;2023-02-05T00:10:58;102277.03;;;18.23
76007;BMP280;64699;0.000;0.000;2023-02-05T00:13:24;102281.28;;;18.24
76007;BMP280;64699;0.000;0.000;2023-02-05T00:15:49;102277.56;;;18.27
76007;BMP280;64699;0.000;0.000;2023-02-05T00:18:15;102280.09;;;18.25
76007;BMP280;64699;0.000;0.000;2023-02-05T00:20:40;102286.09;;;18.29
76007;BMP280;64699;0.000;0.000;2023-02-05T00:23:06;102282.13;;;18.30
76007;BMP280;64699;0.000;0.000;2023-02-05T00:25:31;102290.31;;;18.24
76007;BMP280;64699;0.000;0.000;2023-02-05T00:27:57;102288.59;;;18.27
76007;BMP280;64699;0.000;0.000;2023-02-05T00:30:22;102290.09;;;18.28
76007;BMP280;64699;0.000;0.000;2023-02-05T00:32:48;102284.59;;;18.28
76007;BMP280;64699;0.000;0.000;2023-02-05T00:35:13;102286.09;;;18.29
76007;BMP280;64699;0.000;0.000;2023-02-05T00:37:38;102286.88;;;18.29
76007;BMP280;64699;0.000;0.000;2023-02-05T00:40:04;102278.31;;;18.27
76007;BMP280;64699;0.000;0.000;2023-02-05T00:42:30;102279.31;;;18.24
76007;BMP280;64699;0.000;0.000;2023-02-05T00:44:55;102280.59;;;18.29
76007;BMP280;64699;0.000;0.000;2023-02-05T00:47:21;102280.59;;;18.29
76007;BMP280;64699;0.000;0.000;2023-02-05T00:49:46;102285.44;;;18.33
76007;BMP280;64699;0.000;0.000;2023-02-05T00:52:12;102291.88;;;18.30
76007;BMP280;64699;0.000;0.000;2023-02-05T00:54:37;102281.63;;;18.31
76007;BMP280;64699;0.000;0.000;2023-02-05T00:57:03;102279.94;;;18.33
76007;BMP280;64699;0.000;0.000;2023-02-05T00:59:28;102285.91;;;18.32
76007;BMP280;64699;0.000;0.000;2023-02-05T01:01:54;102286.66;;;18.33
76007;BMP280;64699;0.000;0.000;2023-02-05T01:04:19;102294.44;;;18.34
76007;BMP280;64699;0.000;0.000;2023-02-05T01:06:45;102284.91;;;18.35
76007;BMP280;64699;0.000;0.000;2023-02-05T01:09:10;102284.44;;;18.36
76007;BMP280;64699;0.000;0.000;2023-02-05T01:11:35;102283.75;;;18.41
76007;BMP280;64699;0.000;0.000;2023-02-05T01:14:01;102285.00;;;18.40
76007;BMP280;64699;0.000;0.000;2023-02-05T01:16:27;102289.72;;;18.40
76007;BMP280;64699;0.000;0.000;2023-02-05T01:18:52;102282.25;;;18.40
76007;BMP280;64699;0.000;0.000;2023-02-05T01:21:21;102279.22;;;18.38
76007;BMP280;64699;0.000;0.000;2023-02-05T01:23:48;102278.94;;;18.36
76007;BMP280;64699;0.000;0.000;2023-02-05T01:26:14;102277.91;;;18.34
76007;BMP280;64699;0.000;0.000;2023-02-05T01:28:39;102281.97;;;18.38
76007;BMP280;64699;0.000;0.000;2023-02-05T01:31:05;102273.91;;;18.35
76007;BMP280;64699;0.000;0.000;2023-02-05T01:33:30;102267.69;;;18.34
76007;BMP280;64699;0.000;0.000;2023-02-05T01:35:56;102263.09;;;18.31
76007;BMP280;64699;0.000;0.000;2023-02-05T01:38:21;102262.63;;;18.33
76007;BMP280;64699;0.000;0.000;2023-02-05T01:40:47;102264.66;;;18.33
76007;BMP280;64699;0.000;0.000;2023-02-05T01:43:12;102257.81;;;18.28
76007;BMP280;64699;0.000;0.000;2023-02-05T01:48:31;102260.88;;;18.30
76007;BMP280;64699;0.000;0.000;2023-02-05T01:50:58;102258.59;;;18.29
76007;BMP280;64699;0.000;0.000;2023-02-05T01:53:27;102261.59;;;18.30
76007;BMP280;64699;0.000;0.000;2023-02-05T01:58:41;102257.59;;;18.31
76007;BMP280;64699;0.000;0.000;2023-02-05T02:01:09;102257.13;;;18.33
76007;BMP280;64699;0.000;0.000;2023-02-05T02:03:35;102257.13;;;18.33
76007;BMP280;64699;0.000;0.000;2023-02-05T02:06:01;102259.88;;;18.33
76007;BMP280;64699;0.000;0.000;2023-02-05T02:08:29;102263.88;;;18.32
76007;BMP280;64699;0.000;0.000;2023-02-05T02:10:57;102263.88;;;18.32
76007;BMP280;64699;0.000;0.000;2023-02-05T02:13:23;102260.66;;;18.33
76007;BMP280;64699;0.000;0.000;2023-02-05T02:15:50;102262.19;;;18.34
76007;BMP280;64699;0.000;0.000;2023-02-05T02:18:16;102266.69;;;18.37
76007;BMP280;64699;0.000;0.000;2023-02-05T02:21:11;102265.63;;;18.35
76007;BMP280;64699;0.000;0.000;2023-02-05T02:28:37;102276.97;;;18.37
76007;BMP280;64699;0.000;0.000;2023-02-05T02:31:10;102271.44;;;18.37
76007;BMP280;64699;0.000;0.000;2023-02-05T02:36:12;102274.44;;;18.39
76007;BMP280;64699;0.000;0.000;2023-02-05T02:38:51;102272.19;;;18.37
76007;BMP280;64699;0.000;0.000;2023-02-05T02:41:20;102282.47;;;18.37
76007;BMP280;64699;0.000;0.000;2023-02-05T02:43:55;102286.94;;;18.34
76007;BMP280;64699;0.000;0.000;2023-02-05T02:46:23;102291.19;;;18.35
76007;BMP280;64699;0.000;0.000;2023-02-05T02:48:51;102280.09;;;18.25
76007;BMP280;64699;0.000;0.000;2023-02-05T02:51:18;102295.44;;;18.36
76007;BMP280;64699;0.000;0.000;2023-02-05T02:53:46;102299.72;;;18.37
76007;BMP280;64699;0.000;0.000;2023-02-05T02:56:12;102311.72;;;18.34
76007;BMP280;64699;0.000;0.000;2023-02-05T02:58:39;102307.69;;;18.35
76007;BMP280;64699;0.000;0.000;2023-02-05T03:01:07;102309.50;;;18.38
76007;BMP280;64699;0.000;0.000;2023-02-05T03:03:35;102307.97;;;18.37
76007;BMP280;64699;0.000;0.000;2023-02-05T03:06:01;102305.22;;;18.37
76007;BMP280;64699;0.000;0.000;2023-02-05T03:09:11;102307.69;;;18.35
76007;BMP280;64699;0.000;0.000;2023-02-05T03:11:17;102310.72;;;18.37
76007;BMP280;64699;0.000;0.000;2023-02-05T03:13:42;102308.47;;;18.36
76007;BMP280;64699;0.000;0.000;2023-02-05T03:16:09;102313.69;;;18.34
76007;BMP280;64699;0.000;0.000;2023-02-05T03:18:34;102311.44;;;18.33
76007;BMP280;64699;0.000;0.000;2023-02-05T03:21:05;102312.97;;;18.33
76007;BMP280;64699;0.000;0.000;2023-02-05T03:23:32;102314.19;;;18.33
76007;BMP280;64699;0.000;0.000;2023-02-05T03:25:58;102310.19;;;18.33
76007;BMP280;64699;0.000;0.000;2023-02-05T03:28:23;102312.97;;;18.33
76007;BMP280;64699;0.000;0.000;2023-02-05T03:33:26;102309.44;;;18.33
76007;BMP280;64699;0.000;0.000;2023-02-05T03:44:24;102293.59;;;18.28
76007;BMP280;64699;0.000;0.000;2023-02-05T03:52:02;102297.69;;;18.33
76007;BMP280;64699;0.000;0.000;2023-02-05T03:54:42;102294.91;;;18.33
76007;BMP280;64699;0.000;0.000;2023-02-05T03:57:29;102296.97;;;18.37
76007;BMP280;64699;0.000;0.000;2023-02-05T03:59:57;102298.19;;;18.36
76007;BMP280;64699;0.000;0.000;2023-02-05T04:02:23;102295.19;;;18.34
76007;BMP280;64699;0.000;0.000;2023-02-05T04:04:50;102286.19;;;18.34
76007;BMP280;64699;0.000;0.000;2023-02-05T04:07:15;102296.69;;;18.35
76007;BMP280;64699;0.000;0.000;2023-02-05T04:09:41;102291.47;;;18.37
76007;BMP280;64699;0.000;0.000;2023-02-05T04:12:06;102298.97;;;18.37
76007;BMP280;64699;0.000;0.000;2023-02-05T04:14:32;102300.50;;;18.38
76007;BMP280;64699;0.000;0.000;2023-02-05T04:16:57;102291.69;;;18.34
76007;BMP280;64699;0.000;0.000;2023-02-05T04:19:23;102291.69;;;18.34
76007;BMP280;64699;0.000;0.000;2023-02-05T04:21:49;102292.19;;;18.33
76007;BMP280;64699;0.000;0.000;2023-02-05T04:24:14;102289.41;;;18.33
76007;BMP280;64699;0.000;0.000;2023-02-05T04:26:39;102288.88;;;18.29
76007;BMP280;64699;0.000;0.000;2023-02-05T04:29:05;102285.84;;;18.27
76007;BMP280;64699;0.000;0.000;2023-02-05T04:31:30;102286.78;;;18.24
76007;BMP280;64699;0.000;0.000;2023-02-05T04:33:56;102299.34;;;18.25
76007;BMP280;64699;0.000;0.000;2023-02-05T04:36:22;102301.09;;;18.28
76007;BMP280;64699;0.000;0.000;2023-02-05T04:38:47;102298.06;;;18.26
76007;BMP280;64699;0.000;0.000;2023-02-05T04:41:13;102303.84;;;18.28
76007;BMP280;64699;0.000;0.000;2023-02-05T04:43:38;102305.59;;;18.25
76007;BMP280;64699;0.000;0.000;2023-02-05T04:46:05;102318.34;;;18.28
76007;BMP280;64699;0.000;0.000;2023-02-05T04:48:30;102314.59;;;18.26
76007;BMP280;64699;0.000;0.000;2023-02-05T04:50:56;102313.63;;;18.29
76007;BMP280;64699;0.000;0.000;2023-02-05T04:53:21;102315.84;;;18.25
76007;BMP280;64699;0.000;0.000;2023-02-05T04:55:47;102316.59;;;18.25
76007;BMP280;64699;0.000;0.000;2023-02-05T04:58:12;102318.34;;;18.28
76007;BMP280;64699;0.000;0.000;2023-02-05T05:00:38;102318.84;;;18.27
76007;BMP280;64699;0.000;0.000;2023-02-05T05:03:03;102322.13;;;18.30
76007;BMP280;64699;0.000;0.000;2023-02-05T05:05:28;102322.13;;;18.30
76007;BMP280;64699;0.000;0.000;2023-02-05T05:07:55;102334.66;;;18.31
76007;BMP280;64699;0.000;0.000;2023-02-05T05:10:20;102332.63;;;18.27
76007;BMP280;64699;0.000;0.000;2023-02-05T05:12:46;102332.13;;;18.28
76007;BMP280;64699;0.000;0.000;2023-02-05T05:15:12;102329.09;;;18.26
76007;BMP280;64699;0.000;0.000;2023-02-05T05:17:37;102326.63;;;18.28
76007;BMP280;64699;0.000;0.000;2023-02-05T05:20:03;102324.34;;;18.27
76007;BMP280;64699;0.000;0.000;2023-02-05T05:22:28;102321.59;;;18.27
76007;BMP280;64699;0.000;0.000;2023-02-05T05:24:54;102327.13;;;18.27
76007;BMP280;64699;0.000;0.000;2023-02-05T05:27:19;102329.38;;;18.28
76007;BMP280;64699;0.000;0.000;2023-02-05T05:29:47;102330.34;;;18.25
76007;BMP280;64699;0.000;0.000;2023-02-05T05:32:12;102329.38;;;18.28
76007;BMP280;64699;0.000;0.000;2023-02-05T05:34:38;102337.16;;;18.30
76007;BMP280;64699;0.000;0.000;2023-02-05T05:37:03;102332.13;;;18.28
76007;BMP280;64699;0.000;0.000;2023-02-05T05:39:29;102333.66;;;18.29
76007;BMP280;64699;0.000;0.000;2023-02-05T05:42:13;102333.66;;;18.29
76007;BMP280;64699;0.000;0.000;2023-02-05T05:44:56;102330.59;;;18.27
76007;BMP280;64699;0.000;0.000;2023-02-05T05:47:22;102325.88;;;18.28
76007;BMP280;64699;0.000;0.000;2023-02-05T05:49:47;102330.91;;;18.29
76007;BMP280;64699;0.000;0.000;2023-02-05T05:52:13;102350.91;;;18.30
76007;BMP280;64699;0.000;0.000;2023-02-05T05:54:39;102346.91;;;18.30
76007;BMP280;64699;0.000;0.000;2023-02-05T05:57:05;102346.66;;;18.29
76007;BMP280;64699;0.000;0.000;2023-02-05T05:59:31;102351.19;;;18.31
76007;BMP280;64699;0.000;0.000;2023-02-05T06:01:56;102351.63;;;18.25
76007;BMP280;64699;0.000;0.000;2023-02-05T06:04:22;102357.19;;;18.30
76007;BMP280;64699;0.000;0.000;2023-02-05T06:06:47;102366.16;;;18.30
76007;BMP280;64699;0.000;0.000;2023-02-05T06:09:13;102363.94;;;18.29
76007;BMP280;64699;0.000;0.000;2023-02-05T06:11:38;102366.94;;;18.31
76007;BMP280;64699;0.000;0.000;2023-02-05T06:14:04;102383.00;;;18.33
76007;BMP280;64699;0.000;0.000;2023-02-05T06:16:29;102373.97;;;18.32
76007;BMP280;64699;0.000;0.000;2023-02-05T06:18:55;102384.41;;;18.28
76007;BMP280;64699;0.000;0.000;2023-02-05T06:21:21;102386.41;;;18.28
76007;BMP280;64699;0.000;0.000;2023-02-05T06:23:46;102390.16;;;18.25
76007;BMP280;64699;0.000;0.000;2023-02-05T06:26:11;102392.38;;;18.26
76007;BMP280;64699;0.000;0.000;2023-02-05T06:28:37;102394.66;;;18.28
76007;BMP280;64699;0.000;0.000;2023-02-05T06:31:06;102397.44;;;18.28
76007;BMP280;64699;0.000;0.000;2023-02-05T06:33:31;102397.84;;;18.21
76007;BMP280;64699;0.000;0.000;2023-02-05T06:35:56;102393.91;;;18.27
76007;BMP280;64699;0.000;0.000;2023-02-05T06:38:22;102398.16;;;18.28
76007;BMP280;64699;0.000;0.000;2023-02-05T06:40:47;102406.75;;;18.30
76007;BMP280;64699;0.000;0.000;2023-02-05T06:43:13;102405.22;;;18.29
76007;BMP280;64699;0.000;0.000;2023-02-05T06:45:39;102419.72;;;18.30
76007;BMP280;64699;0.000;0.000;2023-02-05T06:48:04;102409.94;;;18.29
76007;BMP280;64699;0.000;0.000;2023-02-05T06:50:30;102412.25;;;18.30
76007;BMP280;64699;0.000;0.000;2023-02-05T06:52:55;102419.44;;;18.28
76007;BMP280;64699;0.000;0.000;2023-02-05T06:55:21;102411.94;;;18.28
76007;BMP280;64699;0.000;0.000;2023-02-05T06:57:46;102418.22;;;18.29
76007;BMP280;64699;0.000;0.000;2023-02-05T07:00:12;102420.69;;;18.27
76007;BMP280;64699;0.000;0.000;2023-02-05T07:02:38;102420.97;;;18.29
76007;BMP280;64699;0.000;0.000;2023-02-05T07:05:03;102425.41;;;18.26
76007;BMP280;64699;0.000;0.000;2023-02-05T07:07:29;102424.38;;;18.24
76007;BMP280;64699;0.000;0.000;2023-02-05T07:09:54;102423.91;;;18.25
76007;BMP280;64699;0.000;0.000;2023-02-05T07:12:19;102420.19;;;18.28
76007;BMP280;64699;0.000;0.000;2023-02-05T07:14:45;102424.66;;;18.26
76007;BMP280;64699;0.000;0.000;2023-02-05T07:17:11;102420.97;;;18.29
76007;BMP280;64699;0.000;0.000;2023-02-05T07:19:36;102433.94;;;18.28
76007;BMP280;64699;0.000;0.000;2023-02-05T07:22:02;102437.19;;;18.27
76007;BMP280;64699;0.000;0.000;2023-02-05T07:24:28;102429.59;;;18.22
76007;BMP280;64699;0.000;0.000;2023-02-05T07:26:53;102443.94;;;18.26
76007;BMP280;64699;0.000;0.000;2023-02-05T07:29:19;102452.19;;;18.26
76007;BMP280;64699;0.000;0.000;2023-02-05T07:31:44;102453.97;;;18.29
76007;BMP280;64699;0.000;0.000;2023-02-05T07:34:09;102453.97;;;18.29
76007;BMP280;64699;0.000;0.000;2023-02-05T07:36:35;102447.81;;;18.33
76007;BMP280;64699;0.000;0.000;2023-02-05T07:39:00;102443.41;;;18.41
76007;BMP280;64699;0.000;0.000;2023-02-05T07:41:26;102443.69;;;18.43
76007;BMP280;64699;0.000;0.000;2023-02-05T07:43:52;102435.22;;;18.47
76007;BMP280;64699;0.000;0.000;2023-02-05T07:46:18;102446.47;;;18.49
76007;BMP280;64699;0.000;0.000;2023-02-05T07:48:43;102445.19;;;18.44
76007;BMP280;64699;0.000;0.000;2023-02-05T07:51:13;102450.97;;;18.46
76007;BMP280;64699;0.000;0.000;2023-02-05T07:53:39;102452.47;;;18.47
76007;BMP280;64699;0.000;0.000;2023-02-05T07:56:05;102450.97;;;18.46
76007;BMP280;64699;0.000;0.000;2023-02-05T07:58:31;102451.75;;;18.47
76007;BMP280;64699;0.000;0.000;2023-02-05T08:01:02;102452.47;;;18.47
76007;BMP280;64699;0.000;0.000;2023-02-05T08:03:29;102451.94;;;18.43
76007;BMP280;64699;0.000;0.000;2023-02-05T08:05:54;102452.47;;;18.47
76007;BMP280;64699;0.000;0.000;2023-02-05T08:08:23;102453.44;;;18.44
76007;BMP280;64699;0.000;0.000;2023-02-05T08:10:55;102456.19;;;18.44
76007;BMP280;64699;0.000;0.000;2023-02-05T08:13:21;102454.69;;;18.43
76007;BMP280;64699;0.000;0.000;2023-02-05T08:15:47;102463.22;;;18.45
76007;BMP280;64699;0.000;0.000;2023-02-05T08:18:12;102454.97;;;18.45
76007;BMP280;64699;0.000;0.000;2023-02-05T08:20:38;102465.22;;;18.45
76007;BMP280;64699;0.000;0.000;2023-02-05T08:23:03;102472.91;;;18.41
76007;BMP280;64699;0.000;0.000;2023-02-05T08:25:29;102471.69;;;18.42
76007;BMP280;64699;0.000;0.000;2023-02-05T08:27:57;102470.44;;;18.43
76007;BMP280;64699;0.000;0.000;2023-02-05T08:30:25;102477.69;;;18.40
76007;BMP280;64699;0.000;0.000;2023-02-05T08:32:51;102484.38;;;18.39
76007;BMP280;64699;0.000;0.000;2023-02-05T08:35:16;102480.16;;;18.38
76007;BMP280;64699;0.000;0.000;2023-02-05T08:37:42;102483.84;;;18.35
76007;BMP280;64699;0.000;0.000;2023-02-05T08:40:08;102475.66;;;18.41
76007;BMP280;64699;0.000;0.000;2023-02-05T08:42:34;102480.44;;;18.40
76007;BMP280;64699;0.000;0.000;2023-02-05T08:44:59;102484.91;;;18.38
76007;BMP280;64699;0.000;0.000;2023-02-05T08:47:25;102487.38;;;18.36
76007;BMP280;64699;0.000;0.000;2023-02-05T08:49:51;102472.72;;;18.25
76007;BMP280;64699;0.000;0.000;2023-02-05T08:52:16;102491.66;;;18.37
76007;BMP280;64699;0.000;0.000;2023-02-05T08:54:42;102493.69;;;18.42
76007;BMP280;64699;0.000;0.000;2023-02-05T08:57:07;102495.22;;;18.43
76007;BMP280;64699;0.000;0.000;2023-02-05T08:59:33;102499.97;;;18.42
76007;BMP280;64699;0.000;0.000;2023-02-05T09:01:59;102506.41;;;18.39
76007;BMP280;64699;0.000;0.000;2023-02-05T09:04:25;102510.28;;;18.47
76007;BMP280;64699;0.000;0.000;2023-02-05T09:06:50;102511.31;;;18.50
76007;BMP280;64699;0.000;0.000;2023-02-05T09:09:16;102513.34;;;18.49
76007;BMP280;64699;0.000;0.000;2023-02-05T09:11:43;102525.56;;;18.48
76007;BMP280;64699;0.000;0.000;2023-02-05T09:14:11;102527.63;;;18.53
76007;BMP280;64699;0.000;0.000;2023-02-05T09:16:37;102527.09;;;18.49
76007;BMP280;64699;0.000;0.000;2023-02-05T09:19:02;102533.34;;;18.50
76007;BMP280;64699;0.000;0.000;2023-02-05T09:21:28;102530.06;;;18.46
76007;BMP280;64699;0.000;0.000;2023-02-05T09:23:54;102530.91;;;18.52
76007;BMP280;64699;0.000;0.000;2023-02-05T09:26:19;102550.63;;;18.50
76007;BMP280;64699;0.000;0.000;2023-02-05T09:28:45;102540.38;;;18.51
76007;BMP280;64699;0.000;0.000;2023-02-05T09:31:12;102533.84;;;18.48
76007;BMP280;64699;0.000;0.000;2023-02-05T09:33:38;102535.84;;;18.48
76007;BMP280;64699;0.000;0.000;2023-02-05T09:36:07;102539.91;;;18.52
76007;BMP280;64699;0.000;0.000;2023-02-05T09:38:34;102545.13;;;18.50
76007;BMP280;64699;0.000;0.000;2023-02-05T09:43:53;102546.56;;;18.46
76007;BMP280;64699;0.000;0.000;2023-02-05T09:51:22;102549.69;;;18.39
76007;BMP280;64699;0.000;0.000;2023-02-05T09:53:53;102557.00;;;18.42
76007;BMP280;64699;0.000;0.000;2023-02-05T09:56:19;102550.28;;;18.43
76007;BMP280;64699;0.000;0.000;2023-02-05T09:58:49;102547.81;;;18.45
76007;BMP280;64699;0.000;0.000;2023-02-05T10:01:26;102554.53;;;18.44
76007;BMP280;64699;0.000;0.000;2023-02-05T10:03:54;102538.31;;;18.46
76007;BMP280;64699;0.000;0.000;2023-02-05T10:11:36;102543.03;;;18.45
76007;BMP280;64699;0.000;0.000;2023-02-05T10:24:20;102542.38;;;18.50
76007;BMP280;64699;0.000;0.000;2023-02-05T10:26:51;102544.69;;;18.52
76007;BMP280;64699;0.000;0.000;2023-02-05T10:29:30;102547.44;;;18.52
76007;BMP280;64699;0.000;0.000;2023-02-05T10:36:54;102532.41;;;18.53
76007;BMP280;64699;0.000;0.000;2023-02-05T10:39:21;102541.28;;;18.62
76007;BMP280;64699;0.000;0.000;2023-02-05T10:41:49;102537.03;;;18.61
76007;BMP280;64699;0.000;0.000;2023-02-05T10:44:32;102530.78;;;18.61
76007;BMP280;64699;0.000;0.000;2023-02-05T10:47:03;102539.28;;;18.63
76007;BMP280;64699;0.000;0.000;2023-02-05T10:52:01;102541.03;;;18.60
76007;BMP280;64699;0.000;0.000;2023-02-05T10:54:27;102544.81;;;18.63
76007;BMP280;64699;0.000;0.000;2023-02-05T10:56:54;102538.66;;;18.53
76007;BMP280;64699;0.000;0.000;2023-02-05T10:59:21;102534.13;;;18.50
76007;BMP280;64699;0.000;0.000;2023-02-05T11:01:49;102532.69;;;18.55
76007;BMP280;64699;0.000;0.000;2023-02-05T11:04:21;102523.41;;;18.52
76007;BMP280;64699;0.000;0.000;2023-02-05T11:06:50;102527.63;;;18.53
76007;BMP280;64699;0.000;0.000;2023-02-05T11:11:51;102530.78;;;18.61
76007;BMP280;64699;0.000;0.000;2023-02-05T11:14:21;102522.00;;;18.62
76007;BMP280;64699;0.000;0.000;2023-02-05T11:16:49;102521.53;;;18.64
76007;BMP280;64699;0.000;0.000;2023-02-05T11:19:16;102518.78;;;18.64
76007;BMP280;64699;0.000;0.000;2023-02-05T11:21:53;102519.56;;;18.64
76007;BMP280;64699;0.000;0.000;2023-02-05T11:24:24;102513.47;;;18.60
76007;BMP280;64699;0.000;0.000;2023-02-05T11:26:53;102509.78;;;18.63
76007;BMP280;64699;0.000;0.000;2023-02-05T11:29:36;102519.34;;;18.68
76007;BMP280;64699;0.000;0.000;2023-02-05T11:32:01;102517.34;;;18.68
76007;BMP280;64699;0.000;0.000;2023-02-05T11:34:27;102512.59;;;18.69
76007;BMP280;64699;0.000;0.000;2023-02-05T11:36:53;102521.31;;;18.67
76007;BMP280;64699;0.000;0.000;2023-02-05T11:39:23;102503.28;;;18.66
76007;BMP280;64699;0.000;0.000;2023-02-05T11:41:51;102514.59;;;18.68
76007;BMP280;64699;0.000;0.000;2023-02-05T11:44:23;102512.25;;;18.61
76007;BMP280;64699;0.000;0.000;2023-02-05T11:46:49;102514.59;;;18.68
76007;BMP280;64699;0.000;0.000;2023-02-05T11:49:21;102501.59;;;18.69
76007;BMP280;64699;0.000;0.000;2023-02-05T11:51:49;102508.53;;;18.64
76007;BMP280;64699;0.000;0.000;2023-02-05T11:56:43;102509.78;;;18.63
76007;BMP280;64699;0.000;0.000;2023-02-05T11:59:24;102508.78;;;18.66
76007;BMP280;64699;0.000;0.000;2023-02-05T12:01:49;102514.06;;;18.64
76007;BMP280;64699;0.000;0.000;2023-02-05T12:04:16;102509.00;;;18.63
76007;BMP280;64699;0.000;0.000;2023-02-05T12:06:59;102510.72;;;18.60
76007;BMP280;64699;0.000;0.000;2023-02-05T12:09:26;102516.81;;;18.64
76007;BMP280;64699;0.000;0.000;2023-02-05T12:20:14;102516.31;;;18.66
76007;BMP280;64699;0.000;0.000;2023-02-05T12:25:15;102510.25;;;18.62
76007;BMP280;64699;0.000;0.000;2023-02-05T12:27:55;102516.50;;;18.62
76007;BMP280;64699;0.000;0.000;2023-02-05T12:35:33;102505.22;;;18.60
76007;BMP280;64699;0.000;0.000;2023-02-05T12:38:07;102511.97;;;18.59
76007;BMP280;64699;0.000;0.000;2023-02-05T12:40:41;102507.91;;;18.55
76007;BMP280;64699;0.000;0.000;2023-02-05T12:43:13;102514.44;;;18.57
76007;BMP280;64699;0.000;0.000;2023-02-05T12:59:00;102509.63;;;18.52
76007;BMP280;64699;0.000;0.000;2023-02-05T13:01:34;102504.88;;;18.53
76007;BMP280;64699;0.000;0.000;2023-02-05T13:04:02;102505.63;;;18.53
76007;BMP280;64699;0.000;0.000;2023-02-05T13:06:32;102508.38;;;18.53
76007;BMP280;64699;0.000;0.000;2023-02-05T13:09:02;102513.34;;;18.49
76007;BMP280;64699;0.000;0.000;2023-02-05T13:11:31;102502.59;;;18.51
76007;BMP280;64699;0.000;0.000;2023-02-05T13:14:08;102498.34;;;18.50
76007;BMP280;64699;0.000;0.000;2023-02-05T13:16:43;102500.09;;;18.53
76007;BMP280;64699;0.000;0.000;2023-02-05T13:19:13;102503.38;;;18.52
76007;BMP280;64699;0.000;0.000;2023-02-05T13:21:42;102501.09;;;18.50
76007;BMP280;64699;0.000;0.000;2023-02-05T13:24:29;102509.63;;;18.52
76007;BMP280;64699;0.000;0.000;2023-02-05T13:30:04;102507.13;;;18.54
76007;BMP280;64699;0.000;0.000;2023-02-05T13:32:30;102510.94;;;18.57
76007;BMP280;64699;0.000;0.000;2023-02-05T13:34:58;102510.19;;;18.56
76007;BMP280;64699;0.000;0.000;2023-02-05T13:37:29;102514.44;;;18.57
76007;BMP280;64699;0.000;0.000;2023-02-05T13:45:38;102523.44;;;18.58
76007;BMP280;64699;0.000;0.000;2023-02-05T13:56:38;102515.19;;;18.58
76007;BMP280;64699;0.000;0.000;2023-02-05T13:59:21;102520.44;;;18.56
76007;BMP280;64699;0.000;0.000;2023-02-05T14:01:51;102516.25;;;18.60
76007;BMP280;64699;0.000;0.000;2023-02-05T14:04:22;102516.25;;;18.60
76007;BMP280;64699;0.000;0.000;2023-02-05T14:09:36;102507.13;;;18.54
76007;BMP280;64699;0.000;0.000;2023-02-05T14:12:13;102507.13;;;18.54
76007;BMP280;64699;0.000;0.000;2023-02-05T14:14:45;102514.94;;;18.56
76007;BMP280;64699;0.000;0.000;2023-02-05T14:19:56;102515.69;;;18.56
76007;BMP280;64699;0.000;0.000;2023-02-05T14:22:33;102515.69;;;18.56
76007;BMP280;64699;0.000;0.000;2023-02-05T14:24:59;102512.94;;;18.56
76007;BMP280;64699;0.000;0.000;2023-02-05T14:29:50;102508.03;;;18.46
76007;BMP280;64699;0.000;0.000;2023-02-05T14:35:33;102516.09;;;18.49
76007;BMP280;64699;0.000;0.000;2023-02-05T14:37:40;102512.31;;;18.47
76007;BMP280;64699;0.000;0.000;2023-02-05T14:42:44;102508.50;;;18.44
76007;BMP280;64699;0.000;0.000;2023-02-05T14:45:12;102513.25;;;18.44
76007;BMP280;64699;0.000;0.000;2023-02-05T14:47:39;102517.72;;;18.41
76007;BMP280;64699;0.000;0.000;2023-02-05T14:50:09;102518.19;;;18.40
76007;BMP280;64699;0.000;0.000;2023-02-05T14:52:39;102523.53;;;18.43
76007;BMP280;64699;0.000;0.000;2023-02-05T15:07:59;102531.78;;;18.43
76007;BMP280;64699;0.000;0.000;2023-02-05T15:10:30;102534.25;;;18.41
76007;BMP280;64699;0.000;0.000;2023-02-05T15:13:02;102542.72;;;18.38
76007;BMP280;64699;0.000;0.000;2023-02-05T15:15:33;102543.16;;;18.36
76007;BMP280;64699;0.000;0.000;2023-02-05T15:20:44;102550.28;;;18.43
76007;BMP280;64699;0.000;0.000;2023-02-05T15:25:41;102561.84;;;18.47
76007;BMP280;64699;0.000;0.000;2023-02-05T15:28:13;102565.06;;;18.45
76007;BMP280;64699;0.000;0.000;2023-02-05T15:30:45;102564.81;;;18.43
76007;BMP280;64699;0.000;0.000;2023-02-05T15:33:15;102564.81;;;18.43
76007;BMP280;64699;0.000;0.000;2023-02-05T15:35:43;102568.88;;;18.48
76007;BMP280;64699;0.000;0.000;2023-02-05T15:40:43;102571.81;;;18.44
76007;BMP280;64699;0.000;0.000;2023-02-05T15:43:22;102573.06;;;18.43
76007;BMP280;64699;0.000;0.000;2023-02-05T15:45:52;102575.81;;;18.43
76007;BMP280;64699;0.000;0.000;2023-02-05T15:48:26;102568.03;;;18.42
76007;BMP280;64699;0.000;0.000;2023-02-05T15:55:50;102565.75;;;18.40
76007;BMP280;64699;0.000;0.000;2023-02-05T15:58:18;102574.56;;;18.44
76007;BMP280;64699;0.000;0.000;2023-02-05T16:00:45;102578.56;;;18.43
76007;BMP280;64699;0.000;0.000;2023-02-05T16:03:24;102577.31;;;18.44
76007;BMP280;64699;0.000;0.000;2023-02-05T16:05:50;102583.31;;;18.43
76007;BMP280;64699;0.000;0.000;2023-02-05T16:08:17;102582.81;;;18.44
76007;BMP280;64699;0.000;0.000;2023-02-05T16:10:50;102577.06;;;18.42
76007;BMP280;64699;0.000;0.000;2023-02-05T16:13:16;102576.09;;;18.45
76007;BMP280;64699;0.000;0.000;2023-02-05T16:18:50;102577.06;;;18.42
76007;BMP280;64699;0.000;0.000;2023-02-05T16:20:57;102577.06;;;18.42
76007;BMP280;64699;0.000;0.000;2023-02-05T16:25:51;102570.78;;;18.42
76007;BMP280;64699;0.000;0.000;2023-02-05T16:28:21;102572.78;;;18.41
76007;BMP280;64699;0.000;0.000;2023-02-05T16:30:47;102571.25;;;18.40
76007;BMP280;64699;0.000;0.000;2023-02-05T16:33:20;102574.97;;;18.37
76007;BMP280;64699;0.000;0.000;2023-02-05T16:35:48;102574.69;;;18.35
76007;BMP280;64699;0.000;0.000;2023-02-05T16:38:15;102571.34;;;18.31
76007;BMP280;64699;0.000;0.000;2023-02-05T16:40:44;102575.94;;;18.34
76007;BMP280;64699;0.000;0.000;2023-02-05T16:43:29;102577.44;;;18.35
76007;BMP280;64699;0.000;0.000;2023-02-05T16:48:37;102589.97;;;18.36
76007;BMP280;64699;0.000;0.000;2023-02-05T16:51:03;102585.03;;;18.40